createdAt,value
2022-09-20T00:01:33.659Z,0.73
2022-09-20T00:04:05.689Z,0.73
2022-09-20T00:06:35.059Z,0.63
2022-09-20T00:09:04.098Z,0.50
2022-09-20T00:11:33.947Z,0.70
2022-09-20T00:14:04.078Z,0.65
2022-09-20T00:16:36.205Z,0.70
2022-09-20T00:19:06.286Z,0.70
2022-09-20T00:21:36.742Z,0.80
2022-09-20T00:24:06.285Z,0.90
2022-09-20T00:26:34.029Z,0.57
2022-09-20T00:29:01.995Z,1.00
2022-09-20T00:31:30.032Z,0.87
2022-09-20T00:34:18.176Z,0.70
2022-09-20T00:36:46.648Z,1.23
2022-09-20T00:39:16.414Z,1.00
2022-09-20T00:41:45.533Z,0.80
2022-09-20T00:44:45.678Z,0.63
2022-09-20T00:47:23.386Z,0.95
2022-09-20T00:49:54.958Z,1.00
2022-09-20T00:52:23.614Z,0.82
2022-09-20T00:54:51.442Z,0.90
2022-09-20T00:57:19.718Z,0.80
2022-09-20T00:59:50.600Z,0.65
2022-09-20T01:02:31.198Z,0.90
2022-09-20T01:05:00.287Z,1.00
2022-09-20T01:07:28.749Z,1.10
2022-09-20T01:09:56.582Z,1.30
2022-09-20T01:12:31.440Z,1.25
2022-09-20T01:15:00.839Z,1.00
2022-09-20T01:17:31.983Z,1.23
2022-09-20T01:20:06.378Z,1.15
2022-09-20T01:22:52.590Z,1.50
2022-09-20T01:25:38.971Z,1.20
2022-09-20T01:28:07.166Z,1.10
2022-09-20T01:31:07.796Z,1.08
2022-09-20T01:33:47.376Z,0.95
2022-09-20T01:36:34.647Z,1.10
2022-09-20T01:39:24.161Z,1.05
2022-09-20T01:42:00.553Z,1.35
2022-09-20T01:44:51.058Z,1.15
2022-09-20T01:47:21.651Z,1.02
2022-09-20T01:49:49.626Z,1.00
2022-09-20T01:52:35.624Z,1.00
2022-09-20T01:55:37.405Z,1.30
2022-09-20T01:58:42.059Z,1.08
2022-09-20T02:01:19.242Z,1.00
2022-09-20T02:04:08.219Z,1.37
2022-09-20T02:07:05.277Z,1.20
2022-09-20T02:10:00.798Z,1.10
2022-09-20T02:12:39.509Z,1.25
2022-09-20T02:15:42.389Z,1.50
2022-09-20T02:18:44.265Z,1.33
2022-09-20T02:21:14.901Z,1.40
2022-09-20T02:23:57.822Z,1.52
2022-09-20T02:26:40.788Z,1.50
2022-09-20T02:29:34.839Z,1.60
2022-09-20T02:32:02.755Z,1.27
2022-09-20T02:34:51.926Z,1.50
2022-09-20T02:37:57.310Z,1.55
2022-09-20T02:40:31.606Z,1.35
2022-09-20T02:43:18.697Z,1.70
2022-09-20T02:46:04.660Z,1.73
2022-09-20T02:48:59.995Z,1.90
2022-09-20T02:51:43.272Z,1.52
2022-09-20T02:54:38.697Z,1.48
2022-09-20T02:57:44.536Z,1.75
2022-09-20T03:00:21.629Z,1.70
2022-09-20T03:03:02.472Z,3.10
2022-09-20T03:05:56.409Z,2.90
2022-09-20T03:08:47.176Z,3.58
2022-09-20T03:11:33.256Z,5.57
2022-09-20T03:14:23.538Z,7.80
2022-09-20T03:17:13.015Z,4.85
2022-09-20T03:20:07.240Z,3.15
2022-09-20T03:22:59.906Z,3.03
2022-09-20T03:25:55.612Z,2.00
2022-09-20T03:28:48.596Z,2.20
2022-09-20T03:31:17.194Z,1.92
2022-09-20T03:34:00.143Z,2.20
2022-09-20T03:36:43.121Z,2.38
2022-09-20T03:39:38.454Z,2.75
2022-09-20T03:42:18.422Z,2.50
2022-09-20T03:44:47.213Z,3.13
2022-09-20T03:47:49.428Z,4.00
2022-09-20T03:50:37.575Z,3.00
2022-09-20T03:53:40.755Z,5.55
2022-09-20T03:56:45.860Z,3.83
2022-09-20T03:59:31.147Z,2.97
2022-09-20T04:02:20.377Z,3.10
2022-09-20T04:05:03.121Z,3.20
2022-09-20T04:07:46.079Z,3.10
2022-09-20T04:10:28.495Z,2.90
2022-09-20T04:13:48.240Z,2.70
2022-09-20T04:16:27.582Z,3.13
2022-09-20T04:18:58.055Z,3.15
2022-09-20T04:21:35.145Z,3.40
2022-09-20T04:24:27.291Z,3.30
2022-09-20T04:27:18.129Z,3.53
2022-09-20T04:30:21.313Z,4.38
2022-09-20T04:32:55.026Z,3.47
2022-09-20T04:36:05.508Z,3.38
2022-09-20T04:38:36.035Z,3.40
2022-09-20T04:41:17.571Z,3.60
2022-09-20T04:43:54.171Z,3.60
2022-09-20T04:46:59.518Z,4.10
2022-09-20T04:49:39.547Z,4.10
2022-09-20T04:52:19.223Z,4.60
2022-09-20T04:54:59.364Z,6.60
2022-09-20T04:57:54.323Z,11.98
2022-09-20T05:00:24.703Z,32.70
2022-09-20T05:03:23.992Z,25.25
2022-09-20T05:06:24.971Z,16.97
2022-09-20T05:09:11.219Z,7.47
2022-09-20T05:12:06.993Z,6.55
2022-09-20T05:14:57.983Z,7.20
2022-09-20T05:18:02.274Z,5.15
2022-09-20T05:20:46.346Z,4.23
2022-09-20T05:23:31.589Z,3.58
2022-09-20T05:26:32.319Z,3.63
2022-09-20T05:29:19.987Z,3.80
2022-09-20T05:31:55.593Z,3.30
2022-09-20T05:34:52.482Z,4.10
2022-09-20T05:37:29.253Z,3.92
2022-09-20T05:40:29.164Z,3.80
2022-09-20T05:43:18.655Z,3.00
2022-09-20T05:46:10.810Z,2.92
2022-09-20T05:48:59.725Z,2.83
2022-09-20T05:51:55.474Z,2.47
2022-09-20T05:55:01.031Z,2.30
2022-09-20T05:58:17.453Z,2.60
2022-09-20T06:01:30.903Z,2.30
2022-09-20T06:04:13.982Z,2.20
2022-09-20T06:07:19.235Z,2.20
2022-09-20T06:10:08.976Z,2.60
2022-09-20T06:12:57.757Z,2.65
2022-09-20T06:15:47.036Z,2.10
2022-09-20T06:18:17.675Z,2.07
2022-09-20T06:20:48.809Z,2.03
2022-09-20T06:23:16.850Z,2.40
2022-09-20T06:25:54.098Z,2.33
2022-09-20T06:28:29.003Z,2.70
2022-09-20T06:30:57.713Z,1.80
2022-09-20T06:33:28.647Z,1.73
2022-09-20T06:36:26.869Z,1.70
2022-09-20T06:39:49.201Z,2.08
2022-09-20T06:42:17.081Z,2.05
2022-09-20T06:44:45.075Z,1.93
2022-09-20T06:47:16.605Z,1.60
2022-09-20T06:49:44.756Z,1.30
2022-09-20T06:52:21.167Z,1.20
2022-09-20T06:54:57.048Z,1.08
2022-09-20T06:57:38.875Z,1.50
2022-09-20T07:00:12.329Z,1.25
2022-09-20T07:02:41.221Z,1.33
2022-09-20T07:05:18.178Z,1.20
2022-09-20T07:07:47.815Z,1.00
2022-09-20T07:10:16.328Z,1.30
2022-09-20T07:12:44.068Z,1.27
2022-09-20T07:15:12.448Z,1.50
2022-09-20T07:17:40.294Z,0.90
2022-09-20T07:20:08.395Z,1.00
2022-09-20T07:22:36.342Z,0.83
2022-09-20T07:25:04.487Z,1.10
2022-09-20T07:27:32.158Z,1.00
2022-09-20T07:30:00.216Z,0.90
2022-09-20T07:32:27.981Z,1.30
2022-09-20T07:34:55.959Z,1.07
2022-09-20T07:37:24.158Z,0.90
2022-09-20T07:39:52.539Z,1.15
2022-09-20T07:42:21.007Z,0.80
2022-09-20T07:44:51.135Z,0.88
2022-09-20T07:47:19.016Z,0.97
2022-09-20T07:49:49.747Z,0.70
2022-09-20T07:52:18.627Z,0.65
2022-09-20T07:54:46.316Z,0.68
2022-09-20T07:57:14.328Z,0.70
2022-09-20T07:59:43.236Z,0.50
2022-09-20T08:02:16.065Z,0.50
2022-09-20T08:04:44.932Z,0.95
2022-09-20T08:07:13.174Z,0.50
2022-09-20T08:09:41.809Z,0.60
2022-09-20T08:14:57.546Z,1.05
2022-09-20T08:17:25.638Z,0.60
2022-09-20T08:19:55.157Z,0.65
2022-09-20T08:22:24.376Z,0.70
2022-09-20T08:24:52.801Z,0.60
2022-09-20T08:27:20.983Z,0.70
2022-09-20T08:29:50.323Z,1.10
2022-09-20T08:32:18.548Z,0.50
2022-09-20T08:34:49.422Z,0.80
2022-09-20T08:37:17.614Z,0.57
2022-09-20T08:40:01.175Z,0.70
2022-09-20T08:42:46.592Z,0.70
2022-09-20T08:45:33.841Z,0.75
2022-09-20T08:48:06.074Z,1.30
2022-09-20T08:50:34.942Z,3.93
2022-09-20T08:53:06.065Z,0.88
2022-09-20T08:55:37.043Z,0.70
2022-09-20T08:58:08.978Z,0.65
2022-09-20T09:01:12.625Z,0.90
2022-09-20T09:06:47.211Z,0.70
2022-09-20T09:09:26.549Z,0.60
2022-09-20T09:11:56.027Z,0.70
2022-09-20T09:14:51.503Z,0.52
2022-09-20T09:17:27.359Z,0.77
2022-09-20T09:20:07.551Z,1.42
2022-09-20T09:22:38.565Z,1.10
2022-09-20T09:25:32.529Z,1.17
2022-09-20T09:28:14.007Z,1.38
2022-09-20T09:30:47.119Z,1.50
2022-09-20T09:33:32.502Z,1.45
2022-09-20T09:36:14.310Z,1.20
2022-09-20T09:38:47.432Z,1.17
2022-09-20T09:41:25.431Z,0.90
2022-09-20T09:44:10.655Z,0.83
2022-09-20T09:46:40.569Z,0.82
2022-09-20T09:49:19.674Z,9.07
2022-09-20T09:52:02.957Z,1.20
2022-09-20T09:54:39.898Z,0.80
2022-09-20T09:57:40.811Z,0.60
2022-09-20T10:00:22.507Z,0.60
2022-09-20T10:03:26.723Z,0.80
2022-09-20T10:06:28.355Z,0.70
2022-09-20T10:09:20.536Z,1.40
2022-09-20T10:11:48.451Z,1.67
2022-09-20T10:14:41.382Z,8.30
2022-09-20T10:17:35.476Z,3.92
2022-09-20T10:20:28.984Z,2.10
2022-09-20T10:24:02.638Z,4.35
2022-09-20T10:26:49.987Z,1.40
2022-09-20T10:29:43.174Z,1.67
2022-09-20T10:32:33.395Z,2.08
2022-09-20T10:35:14.625Z,11.15
2022-09-20T10:37:54.786Z,1.80
2022-09-20T10:40:52.717Z,1.50
2022-09-20T10:43:42.605Z,1.40
2022-09-20T10:46:39.769Z,1.40
2022-09-20T10:49:29.593Z,1.17
2022-09-20T10:52:03.652Z,1.00
2022-09-20T10:54:39.145Z,0.70
2022-09-20T10:57:37.311Z,1.08
2022-09-20T11:00:24.462Z,0.90
2022-09-20T11:02:58.043Z,0.82
2022-09-20T11:05:38.859Z,0.90
2022-09-20T11:08:23.044Z,0.87
2022-09-20T11:11:32.078Z,0.80
2022-09-20T11:14:14.282Z,1.10
2022-09-20T11:16:56.575Z,0.90
2022-09-20T11:19:40.660Z,0.82
2022-09-20T11:22:37.639Z,0.80
2022-09-20T11:25:33.729Z,0.88
2022-09-20T11:28:22.467Z,0.98
2022-09-20T11:31:37.793Z,1.30
2022-09-20T11:34:28.887Z,1.10
2022-09-20T11:37:03.833Z,0.90
2022-09-20T11:39:44.763Z,0.95
2022-09-20T11:42:20.533Z,0.90
2022-09-20T11:44:48.957Z,0.90
2022-09-20T11:47:52.734Z,0.80
2022-09-20T11:50:38.667Z,0.90
2022-09-20T11:53:43.601Z,0.73
2022-09-20T11:56:21.890Z,0.88
2022-09-20T11:59:00.036Z,0.68
2022-09-20T12:01:35.714Z,0.70
2022-09-20T12:04:35.094Z,0.70
2022-09-20T12:07:32.579Z,1.00
2022-09-20T12:10:20.700Z,1.10
2022-09-20T12:12:55.183Z,1.17
2022-09-20T12:15:32.702Z,0.75
2022-09-20T12:18:02.652Z,0.97
2022-09-20T12:20:33.503Z,0.65
2022-09-20T12:23:45.554Z,0.80
2022-09-20T12:26:38.347Z,1.25
2022-09-20T12:29:27.138Z,0.73
2022-09-20T12:31:57.331Z,0.83
2022-09-20T12:34:26.785Z,0.70
2022-09-20T12:36:57.429Z,0.63
2022-09-20T12:39:32.453Z,0.60
2022-09-20T12:42:03.389Z,0.60
2022-09-20T12:44:39.591Z,0.70
2022-09-20T12:47:13.333Z,1.00
2022-09-20T12:50:04.564Z,1.00
2022-09-20T12:55:50.537Z,1.00
2022-09-20T12:58:23.621Z,0.80
2022-09-20T13:01:14.275Z,1.10
2022-09-20T13:03:48.628Z,0.90
2022-09-20T13:06:20.034Z,1.20
2022-09-20T13:09:08.759Z,0.80
2022-09-20T13:11:57.267Z,1.00
2022-09-20T13:14:33.663Z,1.10
2022-09-20T13:17:13.994Z,1.00
2022-09-20T13:19:47.549Z,0.95
2022-09-20T13:22:25.632Z,0.90
2022-09-20T13:24:57.946Z,0.90
2022-09-20T13:27:32.833Z,1.08
2022-09-20T13:30:19.129Z,0.70
2022-09-20T13:32:49.627Z,1.08
2022-09-20T13:35:25.118Z,0.90
2022-09-20T13:38:03.002Z,1.23
2022-09-20T13:40:37.399Z,1.30
2022-09-20T13:43:33.238Z,1.40
2022-09-20T13:46:12.050Z,1.70
2022-09-20T13:48:41.084Z,1.40
2022-09-20T13:51:27.484Z,1.20
2022-09-20T13:54:19.652Z,0.90
2022-09-20T13:56:48.423Z,0.70
2022-09-20T13:59:19.970Z,0.70
2022-09-20T14:01:54.838Z,0.93
2022-09-20T14:04:29.054Z,0.80
2022-09-20T14:06:59.381Z,0.73
2022-09-20T14:09:33.055Z,1.10
2022-09-20T14:12:06.367Z,1.05
2022-09-20T14:14:36.106Z,1.30
2022-09-20T14:17:07.327Z,1.73
2022-09-20T14:19:43.110Z,1.17
2022-09-20T14:22:21.020Z,1.40
2022-09-20T14:25:14.710Z,1.10
2022-09-20T14:27:43.361Z,1.00
2022-09-20T14:30:33.643Z,0.90
2022-09-20T14:33:01.835Z,1.02
2022-09-20T14:35:31.297Z,2.33
2022-09-20T14:38:10.670Z,1.67
2022-09-20T14:40:47.454Z,1.00
2022-09-20T14:43:39.320Z,1.07
2022-09-20T14:46:17.449Z,1.10
2022-09-20T14:48:46.030Z,1.20
2022-09-20T14:51:25.586Z,0.88
2022-09-20T14:54:14.164Z,1.40
2022-09-20T14:56:50.085Z,24.93
2022-09-20T14:59:19.181Z,30.98
2022-09-20T15:02:12.994Z,18.50
2022-09-20T15:04:52.555Z,2.30
2022-09-20T15:07:20.966Z,3.15
2022-09-20T15:09:48.801Z,7.57
2022-09-20T15:12:20.017Z,4.97
2022-09-20T15:14:49.965Z,14.15
2022-09-20T15:17:21.280Z,11.20
2022-09-20T15:19:51.346Z,6.55
2022-09-20T15:22:19.543Z,2.73
2022-09-20T15:24:47.858Z,16.23
2022-09-20T15:27:19.974Z,7.18
2022-09-20T15:29:48.406Z,2.13
2022-09-20T15:32:17.041Z,1.95
2022-09-20T15:34:45.797Z,2.10
2022-09-20T15:37:13.998Z,1.92
2022-09-20T15:39:42.593Z,1.55
2022-09-20T15:42:11.554Z,2.30
2022-09-20T15:44:42.798Z,1.80
2022-09-20T15:47:15.964Z,1.90
2022-09-20T15:49:47.133Z,1.70
2022-09-20T15:52:17.262Z,2.17
2022-09-20T15:54:46.426Z,3.20
2022-09-20T15:57:14.238Z,1.90
2022-09-20T15:59:42.362Z,2.13
2022-09-20T16:02:10.200Z,1.48
2022-09-20T16:04:38.710Z,1.95
2022-09-20T16:07:07.462Z,1.70
2022-09-20T16:09:36.654Z,1.52
2022-09-20T16:12:05.967Z,3.07
2022-09-20T16:14:34.253Z,3.03
2022-09-20T16:17:02.309Z,2.42
2022-09-20T16:19:30.918Z,2.78
2022-09-20T16:21:59.503Z,2.08
2022-09-20T16:24:30.821Z,2.50
2022-09-20T16:27:01.559Z,2.55
2022-09-20T16:29:31.596Z,2.00
2022-09-20T16:32:02.098Z,2.20
2022-09-20T16:34:32.762Z,1.80
2022-09-20T16:37:06.209Z,1.70
2022-09-20T16:39:35.098Z,1.60
2022-09-20T16:42:05.489Z,1.52
2022-09-20T16:44:37.881Z,1.60
2022-09-20T16:47:09.127Z,1.55
2022-09-20T16:49:40.175Z,1.20
2022-09-20T16:52:09.511Z,1.40
2022-09-20T16:54:37.445Z,1.83
2022-09-20T16:57:05.907Z,1.77
2022-09-20T16:59:33.948Z,2.78
2022-09-20T17:02:01.841Z,5.80
2022-09-20T17:04:30.512Z,6.38
2022-09-20T17:06:59.095Z,5.68
2022-09-20T17:09:28.607Z,6.05
2022-09-20T17:11:56.584Z,4.65
2022-09-20T17:14:25.351Z,3.87
2022-09-20T17:16:53.138Z,3.80
2022-09-20T17:19:21.682Z,4.32
2022-09-20T17:21:51.178Z,3.30
2022-09-20T17:24:20.931Z,2.75
2022-09-20T17:26:50.603Z,2.23
2022-09-20T17:29:20.055Z,1.63
2022-09-20T17:31:55.065Z,1.42
2022-09-20T17:34:25.669Z,1.70
2022-09-20T17:36:55.673Z,1.52
2022-09-20T17:39:23.717Z,1.93
2022-09-20T17:41:51.882Z,3.78
2022-09-20T17:44:19.802Z,3.92
2022-09-20T17:46:50.209Z,3.22
2022-09-20T17:49:20.870Z,3.60
2022-09-20T17:51:51.826Z,3.30
2022-09-20T17:54:24.924Z,3.22
2022-09-20T17:56:56.305Z,2.90
2022-09-20T17:59:25.685Z,2.80
2022-09-20T18:01:54.698Z,2.70
2022-09-20T18:04:24.724Z,2.10
2022-09-20T18:06:55.028Z,2.90
2022-09-20T18:09:25.565Z,3.08
2022-09-20T18:11:55.424Z,2.63
2022-09-20T18:14:27.966Z,2.50
2022-09-20T18:17:01.466Z,2.87
2022-09-20T18:19:34.061Z,2.90
2022-09-20T18:22:03.998Z,3.03
2022-09-20T18:24:32.906Z,2.80
2022-09-20T18:27:01.214Z,3.03
2022-09-20T18:29:32.040Z,3.20
2022-09-20T18:32:01.337Z,3.67
2022-09-20T18:34:33.883Z,4.45
2022-09-20T18:37:04.034Z,4.15
2022-09-20T18:39:34.052Z,3.97
2022-09-20T18:42:02.891Z,4.10
2022-09-20T18:44:34.119Z,3.83
2022-09-20T18:47:04.067Z,3.70
2022-09-20T18:49:32.524Z,3.95
2022-09-20T18:52:00.769Z,3.63
2022-09-20T18:54:33.740Z,3.73
2022-09-20T18:57:02.498Z,3.20
2022-09-20T18:59:30.434Z,3.75
2022-09-20T19:02:52.509Z,3.10
2022-09-20T19:05:32.855Z,2.80
2022-09-20T19:08:34.560Z,3.43
2022-09-20T19:11:10.367Z,2.70
2022-09-20T19:13:55.793Z,3.25
2022-09-20T19:16:47.264Z,2.75
2022-09-20T19:19:24.736Z,2.70
2022-09-20T19:22:34.002Z,2.50
2022-09-20T19:25:25.796Z,3.60
2022-09-20T19:27:54.220Z,3.40
2022-09-20T19:30:22.398Z,3.88
2022-09-20T19:32:50.934Z,4.00
2022-09-20T19:35:32.505Z,3.13
2022-09-20T19:38:15.816Z,3.70
2022-09-20T19:40:50.257Z,4.28
2022-09-20T19:43:42.535Z,4.25
2022-09-20T19:46:17.607Z,4.53
2022-09-20T19:49:13.253Z,3.60
2022-09-20T19:51:43.407Z,2.90
2022-09-20T19:54:13.094Z,2.90
2022-09-20T19:56:48.553Z,2.78
2022-09-20T19:59:17.770Z,2.85
2022-09-20T20:01:46.117Z,2.67
2022-09-20T20:04:17.306Z,3.20
2022-09-20T20:07:31.193Z,3.17
2022-09-20T20:10:19.757Z,3.38
2022-09-20T20:12:54.669Z,3.10
2022-09-20T20:15:41.143Z,2.77
2022-09-20T20:18:44.430Z,3.00
2022-09-20T20:21:47.759Z,2.58
2022-09-20T20:24:30.415Z,2.58
2022-09-20T20:26:58.273Z,2.92
2022-09-20T20:29:26.196Z,2.33
2022-09-20T20:31:54.099Z,2.78
2022-09-20T20:34:21.750Z,2.53
2022-09-20T20:36:50.313Z,2.55
2022-09-20T20:39:18.482Z,2.55
2022-09-20T20:41:52.706Z,2.63
2022-09-20T20:44:22.463Z,3.15
2022-09-20T20:46:54.913Z,3.03
2022-09-20T20:49:25.514Z,3.10
2022-09-20T20:51:54.116Z,2.80
2022-09-20T20:54:21.927Z,3.00
2022-09-20T20:56:50.338Z,3.13
2022-09-20T20:59:18.414Z,2.60
2022-09-20T21:01:46.335Z,2.95
2022-09-20T21:04:16.161Z,2.55
2022-09-20T21:06:44.353Z,2.40
2022-09-20T21:09:13.722Z,2.40
2022-09-20T21:11:47.034Z,2.70
2022-09-20T21:14:16.077Z,2.38
2022-09-20T21:16:44.444Z,2.13
2022-09-20T21:19:18.626Z,2.23
2022-09-20T21:21:48.183Z,2.63
2022-09-20T21:24:17.554Z,2.63
2022-09-20T21:26:47.252Z,2.97
2022-09-20T21:29:16.397Z,3.00
2022-09-20T21:31:47.083Z,2.20
2022-09-20T21:34:16.078Z,3.10
2022-09-20T21:36:47.722Z,2.97
2022-09-20T21:39:15.461Z,3.05
2022-09-20T21:41:43.116Z,3.22
2022-09-20T21:44:12.479Z,3.20
2022-09-20T21:46:42.031Z,3.22
2022-09-20T21:49:12.111Z,2.95
2022-09-20T21:51:43.012Z,3.00
2022-09-20T21:54:11.243Z,3.10
2022-09-20T21:56:40.518Z,2.77
2022-09-20T21:59:09.750Z,3.22
2022-09-20T22:01:39.568Z,3.40
2022-09-20T22:04:09.826Z,3.65
2022-09-20T22:06:42.961Z,4.28
2022-09-20T22:09:18.412Z,4.10
2022-09-20T22:11:49.003Z,3.78
2022-09-20T22:14:20.094Z,4.18
2022-09-20T22:16:51.540Z,4.28
2022-09-20T22:19:20.840Z,3.67
2022-09-20T22:21:51.190Z,3.77
2022-09-20T22:24:19.453Z,4.13
2022-09-20T22:26:50.084Z,4.55
2022-09-20T22:29:18.649Z,4.75
2022-09-20T22:31:48.960Z,4.15
2022-09-20T22:34:19.230Z,4.40
2022-09-20T22:36:47.859Z,4.03
2022-09-20T22:39:16.198Z,4.32
2022-09-20T22:41:44.860Z,3.97
2022-09-20T22:44:12.794Z,4.05
2022-09-20T22:46:40.645Z,4.43
2022-09-20T22:49:09.742Z,4.20
2022-09-20T22:51:38.211Z,4.53
2022-09-20T22:54:10.776Z,4.53
2022-09-20T22:56:41.527Z,4.93
2022-09-20T22:59:14.481Z,4.40
2022-09-20T23:01:47.275Z,4.63
2022-09-20T23:04:18.276Z,4.65
2022-09-20T23:06:49.195Z,4.35
2022-09-20T23:09:18.523Z,4.20
2022-09-20T23:11:47.068Z,4.57
2022-09-20T23:14:20.166Z,4.10
2022-09-20T23:16:49.158Z,4.05
2022-09-20T23:19:17.470Z,3.97
2022-09-20T23:21:45.568Z,4.97
2022-09-20T23:24:15.404Z,4.30
2022-09-20T23:26:44.470Z,4.60
2022-09-20T23:29:14.483Z,5.10
2022-09-20T23:31:46.119Z,5.10
2022-09-20T23:34:17.686Z,4.63
2022-09-20T23:36:46.099Z,5.20
2022-09-20T23:39:14.531Z,5.00
2022-09-20T23:41:47.012Z,6.18
2022-09-20T23:44:17.914Z,5.50
2022-09-20T23:46:45.960Z,5.43
2022-09-20T23:49:13.861Z,5.47
2022-09-20T23:51:41.499Z,5.63
2022-09-20T23:54:09.640Z,5.65
2022-09-20T23:56:37.573Z,6.10
2022-09-20T23:59:05.321Z,5.72
